createdAt,value
2023-02-17T00:01:03.905Z,44.30
2023-02-17T00:03:36.105Z,40.10
2023-02-17T00:08:40.061Z,41.95
2023-02-17T00:11:11.612Z,43.05
2023-02-17T00:13:44.389Z,42.53
2023-02-17T00:16:18.002Z,43.15
2023-02-17T00:18:53.844Z,43.10
2023-02-17T00:21:26.894Z,42.80
2023-02-17T00:23:58.998Z,44.35
2023-02-17T00:26:31.779Z,43.38
2023-02-17T00:29:03.737Z,42.00
2023-02-17T00:31:36.200Z,41.75
2023-02-17T00:34:08.486Z,42.05
2023-02-17T00:36:40.437Z,42.13
2023-02-17T00:39:16.086Z,43.15
2023-02-17T00:41:47.845Z,42.25
2023-02-17T00:44:20.212Z,41.18
2023-02-17T00:49:22.495Z,41.67
2023-02-17T00:51:55.276Z,43.40
2023-02-17T00:54:27.235Z,42.85
2023-02-17T00:56:59.820Z,42.93
2023-02-17T01:02:02.144Z,42.00
2023-02-17T01:04:35.363Z,40.90
2023-02-17T01:07:07.656Z,42.50
2023-02-17T01:09:40.845Z,43.77
2023-02-17T01:12:14.652Z,42.27
2023-02-17T01:14:46.416Z,41.75
2023-02-17T01:17:18.572Z,42.93
2023-02-17T01:22:21.672Z,42.80
2023-02-17T01:24:54.657Z,45.23
2023-02-17T01:27:26.414Z,42.10
2023-02-17T01:29:59.818Z,43.13
2023-02-17T01:32:32.178Z,44.00
2023-02-17T01:35:04.757Z,43.23
2023-02-17T01:37:41.014Z,42.50
2023-02-17T01:40:17.141Z,42.80
2023-02-17T01:42:49.243Z,42.00
2023-02-17T01:45:34.262Z,41.93
2023-02-17T01:48:08.450Z,42.23
2023-02-17T01:50:42.186Z,43.00
2023-02-17T01:53:16.324Z,41.90
2023-02-17T01:55:48.365Z,43.00
2023-02-17T01:58:21.543Z,44.83
2023-02-17T02:00:54.459Z,43.50
2023-02-17T02:03:28.059Z,43.10
2023-02-17T02:06:00.292Z,42.20
2023-02-17T02:08:36.484Z,44.55
2023-02-17T02:11:09.062Z,43.50
2023-02-17T02:16:15.866Z,42.80
2023-02-17T02:18:52.114Z,42.77
2023-02-17T02:21:50.082Z,45.80
2023-02-17T02:24:27.783Z,41.87
2023-02-17T02:27:24.725Z,41.90
2023-02-17T02:30:14.322Z,42.30
2023-02-17T02:32:51.672Z,40.90
2023-02-17T02:35:25.344Z,42.30
2023-02-17T02:38:01.923Z,41.87
2023-02-17T02:40:35.861Z,42.60
2023-02-17T02:43:09.670Z,42.15
2023-02-17T02:45:41.023Z,42.63
2023-02-17T02:48:13.184Z,39.40
2023-02-17T02:51:00.432Z,40.60
2023-02-17T02:53:52.532Z,41.25
2023-02-17T02:56:36.590Z,49.23
2023-02-17T02:59:14.599Z,49.95
2023-02-17T03:01:49.300Z,48.33
2023-02-17T03:04:27.002Z,47.90
2023-02-17T03:07:02.441Z,47.57
2023-02-17T03:09:34.818Z,48.95
2023-02-17T03:12:06.977Z,49.07
2023-02-17T03:14:40.176Z,46.05
2023-02-17T03:17:12.540Z,45.65
2023-02-17T03:19:46.135Z,47.35
2023-02-17T03:22:21.579Z,44.95
2023-02-17T03:24:55.178Z,43.93
2023-02-17T03:27:27.544Z,44.45
2023-02-17T03:29:59.931Z,45.95
2023-02-17T03:32:33.103Z,45.78
2023-02-17T03:35:05.765Z,48.10
2023-02-17T03:37:37.927Z,48.25
2023-02-17T03:40:11.510Z,47.23
2023-02-17T03:42:43.323Z,45.50
2023-02-17T03:45:14.956Z,47.53
2023-02-17T03:47:48.145Z,55.48
2023-02-17T03:50:20.521Z,56.23
2023-02-17T03:52:52.680Z,56.40
2023-02-17T03:55:25.374Z,52.85
2023-02-17T04:00:27.333Z,48.47
2023-02-17T04:03:00.727Z,47.97
2023-02-17T04:05:33.097Z,46.45
2023-02-17T04:08:05.471Z,47.03
2023-02-17T04:10:36.817Z,51.03
2023-02-17T04:13:08.567Z,48.25
2023-02-17T04:15:40.998Z,47.62
2023-02-17T04:18:13.975Z,46.95
2023-02-17T04:20:49.241Z,46.00
2023-02-17T04:23:22.143Z,46.45
2023-02-17T04:25:54.104Z,43.45
2023-02-17T04:28:26.681Z,44.53
2023-02-17T04:31:00.804Z,41.57
2023-02-17T04:33:34.300Z,43.90
2023-02-17T04:36:07.387Z,43.75
2023-02-17T04:38:39.645Z,43.73
2023-02-17T04:41:11.193Z,44.58
2023-02-17T04:43:44.242Z,41.90
2023-02-17T04:46:15.982Z,42.50
2023-02-17T04:48:49.122Z,42.03
2023-02-17T04:51:21.499Z,44.40
2023-02-17T04:53:55.360Z,45.95
2023-02-17T04:56:27.056Z,46.35
2023-02-17T04:58:59.224Z,45.75
2023-02-17T05:01:33.492Z,45.40
2023-02-17T05:04:06.005Z,47.10
2023-02-17T05:06:38.171Z,44.25
2023-02-17T05:09:10.370Z,45.08
2023-02-17T05:11:41.893Z,44.65
2023-02-17T05:14:13.848Z,43.35
2023-02-17T05:16:46.424Z,43.50
2023-02-17T05:19:18.382Z,43.80
2023-02-17T05:21:51.779Z,43.70
2023-02-17T05:24:23.945Z,42.00
2023-02-17T05:26:56.314Z,43.23
2023-02-17T05:29:28.683Z,45.38
2023-02-17T05:32:01.100Z,44.55
2023-02-17T05:34:33.844Z,45.70
2023-02-17T05:37:05.600Z,48.10
2023-02-17T05:39:37.552Z,43.83
2023-02-17T05:42:09.512Z,45.48
2023-02-17T05:44:41.274Z,45.10
2023-02-17T05:47:13.638Z,46.55
2023-02-17T05:49:45.810Z,48.20
2023-02-17T05:52:19.005Z,49.70
2023-02-17T05:54:50.550Z,50.77
2023-02-17T05:57:23.126Z,49.40
2023-02-17T06:02:25.206Z,49.03
2023-02-17T06:04:58.482Z,49.48
2023-02-17T06:07:31.375Z,50.05
2023-02-17T06:12:34.137Z,47.77
2023-02-17T06:15:06.654Z,51.57
2023-02-17T06:17:38.619Z,54.20
2023-02-17T06:20:12.621Z,60.40
2023-02-17T06:22:46.007Z,57.05
2023-02-17T06:25:18.584Z,57.00
2023-02-17T06:27:50.756Z,55.10
2023-02-17T06:30:23.642Z,56.25
2023-02-17T06:32:57.944Z,53.45
2023-02-17T06:35:30.112Z,54.00
2023-02-17T06:38:02.725Z,49.75
2023-02-17T06:43:04.965Z,49.60
2023-02-17T06:45:37.360Z,48.35
2023-02-17T06:48:10.525Z,50.13
2023-02-17T06:50:43.107Z,53.45
2023-02-17T06:55:47.114Z,49.73
2023-02-17T06:58:20.677Z,49.25
2023-02-17T07:00:58.112Z,53.10
2023-02-17T07:03:30.894Z,51.95
2023-02-17T07:06:02.795Z,53.00
2023-02-17T07:08:37.069Z,54.42
2023-02-17T07:11:09.696Z,54.65
2023-02-17T07:16:18.217Z,57.15
2023-02-17T07:18:50.237Z,53.15
2023-02-17T07:21:22.615Z,53.38
2023-02-17T07:23:55.796Z,53.92
2023-02-17T07:26:27.553Z,52.55
2023-02-17T07:29:00.764Z,52.48
2023-02-17T07:31:33.665Z,52.37
2023-02-17T07:34:06.712Z,53.30
2023-02-17T07:36:38.466Z,52.87
2023-02-17T07:39:11.867Z,54.63
2023-02-17T07:41:43.411Z,53.60
2023-02-17T07:44:15.778Z,54.33
2023-02-17T07:49:18.882Z,57.70
2023-02-17T07:51:51.252Z,51.80
2023-02-17T07:54:23.417Z,51.93
2023-02-17T07:56:55.993Z,52.65
2023-02-17T08:01:59.918Z,53.00
2023-02-17T08:04:35.045Z,51.65
2023-02-17T08:07:07.114Z,51.95
2023-02-17T08:09:57.911Z,50.73
2023-02-17T08:12:47.077Z,47.70
2023-02-17T08:15:19.454Z,48.33
2023-02-17T08:17:53.503Z,48.23
2023-02-17T08:20:25.709Z,46.07
2023-02-17T08:25:29.177Z,47.23
2023-02-17T08:28:02.059Z,47.95
2023-02-17T08:30:36.630Z,51.25
2023-02-17T08:33:09.116Z,51.15
2023-02-17T08:35:43.625Z,50.65
2023-02-17T08:38:15.906Z,50.70
2023-02-17T08:40:47.694Z,50.95
2023-02-17T08:43:19.618Z,54.03
2023-02-17T08:45:52.051Z,54.83
2023-02-17T08:50:54.323Z,51.37
2023-02-17T08:53:26.460Z,52.10
2023-02-17T08:55:57.665Z,51.63
2023-02-17T08:58:29.753Z,51.63
2023-02-17T09:01:02.156Z,50.80
2023-02-17T09:03:38.189Z,48.73
2023-02-17T09:06:10.970Z,48.80
2023-02-17T09:08:43.676Z,51.40
2023-02-17T09:11:17.321Z,47.60
2023-02-17T09:13:49.724Z,46.70
2023-02-17T09:18:54.500Z,42.40
2023-02-17T09:21:26.816Z,42.20
2023-02-17T09:23:59.188Z,44.33
2023-02-17T09:26:30.743Z,44.75
2023-02-17T09:29:04.148Z,43.27
2023-02-17T09:31:37.025Z,41.47
2023-02-17T09:34:09.503Z,41.23
2023-02-17T09:36:41.927Z,43.85
2023-02-17T09:39:15.178Z,47.27
2023-02-17T09:41:48.648Z,50.83
2023-02-17T09:44:22.301Z,51.17
2023-02-17T09:47:02.181Z,50.10
2023-02-17T09:49:37.972Z,47.70
2023-02-17T09:52:12.758Z,46.90
2023-02-17T09:54:49.122Z,44.80
2023-02-17T09:57:23.323Z,44.80
2023-02-17T09:59:56.738Z,42.80
2023-02-17T10:02:35.102Z,41.70
2023-02-17T10:05:08.625Z,44.10
2023-02-17T10:07:43.437Z,46.60
2023-02-17T10:10:17.120Z,45.73
2023-02-17T10:12:51.400Z,45.78
2023-02-17T10:15:25.844Z,46.33
2023-02-17T10:18:00.208Z,47.70
2023-02-17T10:20:34.000Z,47.90
2023-02-17T10:23:08.507Z,46.28
2023-02-17T10:25:52.716Z,46.40
2023-02-17T10:28:29.050Z,45.37
2023-02-17T10:31:04.245Z,42.78
2023-02-17T10:33:37.808Z,40.10
2023-02-17T10:36:20.925Z,42.05
2023-02-17T10:38:54.198Z,42.33
2023-02-17T10:41:28.731Z,41.48
2023-02-17T10:44:04.183Z,42.88
2023-02-17T10:46:36.499Z,42.50
2023-02-17T10:49:11.794Z,43.70
2023-02-17T10:51:44.170Z,44.75
2023-02-17T10:54:19.810Z,42.03
2023-02-17T10:56:54.024Z,43.08
2023-02-17T10:59:29.222Z,43.23
2023-02-17T11:02:07.775Z,44.00
2023-02-17T11:04:44.323Z,42.13
2023-02-17T11:07:17.438Z,42.75
2023-02-17T11:09:50.632Z,44.50
2023-02-17T11:12:26.652Z,42.58
2023-02-17T11:14:58.486Z,43.23
2023-02-17T11:17:32.652Z,41.68
2023-02-17T11:20:05.855Z,41.92
2023-02-17T11:22:41.050Z,42.75
2023-02-17T11:25:24.098Z,40.98
2023-02-17T11:27:58.524Z,40.08
2023-02-17T11:30:31.804Z,38.10
2023-02-17T11:33:14.401Z,38.73
2023-02-17T11:38:18.528Z,38.05
2023-02-17T11:40:58.451Z,38.85
2023-02-17T11:43:31.198Z,35.25
2023-02-17T11:46:09.260Z,35.43
2023-02-17T11:48:57.628Z,36.88
2023-02-17T11:51:32.074Z,34.25
2023-02-17T11:54:06.760Z,33.80
2023-02-17T11:56:39.196Z,33.18
2023-02-17T11:59:19.204Z,34.15
2023-02-17T12:02:05.490Z,33.95
2023-02-17T12:04:39.617Z,34.67
2023-02-17T12:07:35.829Z,35.95
2023-02-17T12:10:14.352Z,35.25
2023-02-17T12:12:57.583Z,33.73
2023-02-17T12:15:35.762Z,35.70
2023-02-17T12:18:13.646Z,34.20
2023-02-17T12:20:49.946Z,33.50
2023-02-17T12:23:27.877Z,34.03
2023-02-17T12:26:01.100Z,33.40
2023-02-17T12:28:50.242Z,32.80
2023-02-17T12:31:29.748Z,33.25
2023-02-17T12:34:03.965Z,31.67
2023-02-17T12:36:36.287Z,32.25
2023-02-17T12:39:13.614Z,31.45
2023-02-17T12:41:47.560Z,31.80
2023-02-17T12:44:21.361Z,33.70
2023-02-17T12:46:55.263Z,32.23
2023-02-17T12:49:29.575Z,31.55
2023-02-17T12:52:05.728Z,31.68
2023-02-17T12:54:39.489Z,30.17
2023-02-17T12:57:16.766Z,31.35
2023-02-17T12:59:50.707Z,31.07
2023-02-17T13:02:23.096Z,29.65
2023-02-17T13:04:56.669Z,31.30
2023-02-17T13:07:37.846Z,28.83
2023-02-17T13:10:20.252Z,28.60
2023-02-17T13:12:59.244Z,28.12
2023-02-17T13:15:38.424Z,27.75
2023-02-17T13:18:13.372Z,26.07
2023-02-17T13:21:00.252Z,27.32
2023-02-17T13:23:35.161Z,28.92
2023-02-17T13:26:14.780Z,26.15
2023-02-17T13:28:46.786Z,26.68
2023-02-17T13:31:20.454Z,26.73
2023-02-17T13:33:54.804Z,26.55
2023-02-17T13:36:37.623Z,26.05
2023-02-17T13:39:23.302Z,26.95
2023-02-17T13:41:56.299Z,26.42
2023-02-17T13:44:30.360Z,26.73
2023-02-17T13:47:03.020Z,26.05
2023-02-17T13:49:35.645Z,26.82
2023-02-17T13:52:12.318Z,25.37
2023-02-17T13:54:52.716Z,24.87
2023-02-17T13:57:29.252Z,23.85
2023-02-17T14:00:11.958Z,23.47
2023-02-17T14:02:49.242Z,24.00
2023-02-17T14:05:21.829Z,23.92
2023-02-17T14:07:54.262Z,22.70
2023-02-17T14:10:27.384Z,22.05
2023-02-17T14:12:59.362Z,20.40
2023-02-17T14:18:02.443Z,20.00
2023-02-17T14:20:35.730Z,21.30
2023-02-17T14:23:10.272Z,19.50
2023-02-17T14:25:42.830Z,19.92
2023-02-17T14:28:22.579Z,18.05
2023-02-17T14:30:55.360Z,17.48
2023-02-17T14:33:27.320Z,16.55
2023-02-17T14:36:00.615Z,17.12
2023-02-17T14:38:35.612Z,16.95
2023-02-17T14:41:07.700Z,20.00
2023-02-17T14:43:40.080Z,18.02
2023-02-17T14:48:42.976Z,18.48
2023-02-17T14:53:44.852Z,21.07
2023-02-17T14:56:19.297Z,22.55
2023-02-17T14:58:53.486Z,21.10
2023-02-17T15:01:27.144Z,21.45
2023-02-17T15:03:59.458Z,25.20
2023-02-17T15:06:36.488Z,25.25
2023-02-17T15:09:10.802Z,27.85
2023-02-17T15:11:45.721Z,29.12
2023-02-17T15:14:18.158Z,30.20
2023-02-17T15:16:50.956Z,27.85
2023-02-17T15:19:25.157Z,28.52
2023-02-17T15:21:57.728Z,27.37
2023-02-17T15:24:33.372Z,28.55
2023-02-17T15:27:06.156Z,28.83
2023-02-17T15:29:38.120Z,28.50
2023-02-17T15:32:16.501Z,29.98
2023-02-17T15:34:48.796Z,31.80
2023-02-17T15:37:20.757Z,33.48
2023-02-17T15:39:52.721Z,30.52
2023-02-17T15:42:26.318Z,30.15
2023-02-17T15:44:58.278Z,29.90
2023-02-17T15:50:01.175Z,28.57
2023-02-17T15:52:32.728Z,26.25
2023-02-17T15:55:05.505Z,28.80
2023-02-17T15:57:40.327Z,29.07
2023-02-17T16:00:17.572Z,27.48
2023-02-17T16:02:49.789Z,26.00
2023-02-17T16:05:24.912Z,28.57
2023-02-17T16:07:57.404Z,27.90
2023-02-17T16:10:29.979Z,27.02
2023-02-17T16:13:02.765Z,25.70
2023-02-17T16:15:35.945Z,25.05
2023-02-17T16:18:09.743Z,25.30
2023-02-17T16:20:42.527Z,26.70
2023-02-17T16:23:16.340Z,25.57
2023-02-17T16:25:48.849Z,26.07
2023-02-17T16:28:21.900Z,25.05
2023-02-17T16:30:54.061Z,25.90
2023-02-17T16:33:26.255Z,24.60
2023-02-17T16:35:58.805Z,24.23
2023-02-17T16:38:32.606Z,22.73
2023-02-17T16:41:04.363Z,23.77
2023-02-17T16:43:36.738Z,24.35
2023-02-17T16:46:09.647Z,24.35
2023-02-17T16:48:44.005Z,22.87
2023-02-17T16:51:16.309Z,23.10
2023-02-17T16:53:48.677Z,21.53
2023-02-17T16:56:22.594Z,22.73
2023-02-17T16:58:54.940Z,24.55
2023-02-17T17:03:58.156Z,24.20
2023-02-17T17:06:31.340Z,23.47
2023-02-17T17:09:03.713Z,23.55
2023-02-17T17:11:35.262Z,23.95
2023-02-17T17:14:07.430Z,23.77
2023-02-17T17:19:12.237Z,25.80
2023-02-17T17:21:44.539Z,26.70
2023-02-17T17:24:17.113Z,26.70
2023-02-17T17:29:18.989Z,29.53
2023-02-17T17:31:51.706Z,30.23
2023-02-17T17:34:24.197Z,33.20
2023-02-17T17:36:55.693Z,35.67
2023-02-17T17:39:28.063Z,34.65
2023-02-17T17:42:00.032Z,34.93
2023-02-17T17:44:31.778Z,31.90
2023-02-17T17:47:04.362Z,38.08
2023-02-17T17:49:36.823Z,39.20
2023-02-17T17:52:09.103Z,46.83
2023-02-17T17:57:11.618Z,53.27
2023-02-17T18:02:13.668Z,55.23
2023-02-17T18:04:46.487Z,49.75
2023-02-17T18:07:18.487Z,56.65
2023-02-17T18:09:50.784Z,57.93
2023-02-17T18:12:22.772Z,55.73
2023-02-17T18:14:55.931Z,51.70
2023-02-17T18:17:27.540Z,50.67
2023-02-17T18:19:59.450Z,51.95
2023-02-17T18:22:31.817Z,53.05
2023-02-17T18:25:04.185Z,50.67
2023-02-17T18:27:40.413Z,52.93
2023-02-17T18:30:14.174Z,55.57
2023-02-17T18:32:46.414Z,56.23
2023-02-17T18:35:19.211Z,59.30
2023-02-17T18:37:51.564Z,59.50
2023-02-17T18:40:24.136Z,54.90
2023-02-17T18:42:56.714Z,54.63
2023-02-17T18:45:28.876Z,53.10
2023-02-17T18:48:01.040Z,57.70
2023-02-17T18:53:06.608Z,54.00
2023-02-17T18:55:39.800Z,63.75
2023-02-17T18:58:12.776Z,65.90
2023-02-17T19:00:44.737Z,64.45
2023-02-17T19:03:17.322Z,64.50
2023-02-17T19:08:19.388Z,58.47
2023-02-17T19:10:51.966Z,54.10
2023-02-17T19:13:25.151Z,51.10
2023-02-17T19:16:05.794Z,48.67
2023-02-17T19:18:38.986Z,45.30
2023-02-17T19:21:11.482Z,46.45
2023-02-17T19:23:43.591Z,44.53
2023-02-17T19:26:16.225Z,46.18
2023-02-17T19:28:51.000Z,45.75
2023-02-17T19:31:23.329Z,47.55
2023-02-17T19:33:55.582Z,49.75
2023-02-17T19:36:27.967Z,47.17
2023-02-17T19:39:00.342Z,46.40
2023-02-17T19:41:31.424Z,45.60
2023-02-17T19:44:03.232Z,39.10
2023-02-17T19:46:35.905Z,35.98
2023-02-17T19:49:09.198Z,35.60
2023-02-17T19:51:41.368Z,34.90
2023-02-17T19:54:13.734Z,31.55
2023-02-17T19:59:14.995Z,33.20
2023-02-17T20:01:46.560Z,31.75
2023-02-17T20:04:20.411Z,31.57
2023-02-17T20:06:52.937Z,30.60
2023-02-17T20:09:25.509Z,31.53
2023-02-17T20:11:56.847Z,38.00
2023-02-17T20:14:28.602Z,42.20
2023-02-17T20:17:01.385Z,43.90
2023-02-17T20:19:33.206Z,42.15
2023-02-17T20:22:05.107Z,43.92
2023-02-17T20:24:38.497Z,46.37
2023-02-17T20:27:10.274Z,45.10
2023-02-17T20:29:42.008Z,45.03
2023-02-17T20:32:14.494Z,43.28
2023-02-17T20:34:46.544Z,40.85
2023-02-17T20:37:17.891Z,38.92
2023-02-17T20:39:50.463Z,41.30
2023-02-17T20:42:21.812Z,39.50
2023-02-17T20:44:55.003Z,40.85
2023-02-17T20:47:26.668Z,40.85
2023-02-17T20:49:58.513Z,42.98
2023-02-17T20:52:30.701Z,41.95
2023-02-17T20:55:03.462Z,43.50
2023-02-17T20:57:35.218Z,41.60
2023-02-17T21:00:09.234Z,40.75
2023-02-17T21:02:41.206Z,38.85
2023-02-17T21:05:13.559Z,39.63
2023-02-17T21:07:45.831Z,41.25
2023-02-17T21:10:19.631Z,42.48
2023-02-17T21:12:51.542Z,40.95
2023-02-17T21:15:24.274Z,43.05
2023-02-17T21:17:56.233Z,42.70
2023-02-17T21:20:28.583Z,47.85
2023-02-17T21:25:30.886Z,52.70
2023-02-17T21:28:03.049Z,46.95
2023-02-17T21:30:34.805Z,45.28
2023-02-17T21:33:07.269Z,44.33
2023-02-17T21:35:39.343Z,46.80
2023-02-17T21:38:12.738Z,47.95
2023-02-17T21:40:45.158Z,75.50
2023-02-17T21:43:34.884Z,82.20
2023-02-17T21:46:10.606Z,67.55
2023-02-17T21:48:42.697Z,53.43
2023-02-17T21:51:15.272Z,34.58
2023-02-17T21:53:47.450Z,31.65
2023-02-17T21:58:49.994Z,31.05
2023-02-17T22:01:22.921Z,30.48
2023-02-17T22:03:55.335Z,30.90
2023-02-17T22:06:28.472Z,31.55
2023-02-17T22:09:01.253Z,30.15
2023-02-17T22:11:34.003Z,27.40
2023-02-17T22:14:07.016Z,28.80
2023-02-17T22:16:38.883Z,29.25
2023-02-17T22:19:14.208Z,29.05
2023-02-17T22:21:46.172Z,28.95
2023-02-17T22:24:20.844Z,27.37
2023-02-17T22:26:51.879Z,26.13
2023-02-17T22:29:23.910Z,29.65
2023-02-17T22:31:56.595Z,30.00
2023-02-17T22:34:29.282Z,29.15
2023-02-17T22:37:00.805Z,29.20
2023-02-17T22:39:33.386Z,32.00
2023-02-17T22:42:04.930Z,32.00
2023-02-17T22:44:37.097Z,34.10
2023-02-17T22:47:08.851Z,31.52
2023-02-17T22:49:41.426Z,32.25
2023-02-17T22:54:45.763Z,30.40
2023-02-17T22:57:17.516Z,28.70
2023-02-17T22:59:50.088Z,30.50
2023-02-17T23:02:22.258Z,28.55
2023-02-17T23:07:25.157Z,28.90
2023-02-17T23:09:57.129Z,30.27
2023-02-17T23:12:29.140Z,29.07
2023-02-17T23:15:02.062Z,28.10
2023-02-17T23:17:53.891Z,29.25
2023-02-17T23:20:26.462Z,27.90
2023-02-17T23:22:58.631Z,27.70
2023-02-17T23:25:30.807Z,24.70
2023-02-17T23:28:02.449Z,22.70
2023-02-17T23:30:34.555Z,21.85
2023-02-17T23:33:06.475Z,17.27
2023-02-17T23:35:45.022Z,15.25
2023-02-17T23:38:18.185Z,14.90
2023-02-17T23:40:51.379Z,13.37
2023-02-17T23:43:23.332Z,13.30
2023-02-17T23:45:56.728Z,12.93
2023-02-17T23:48:28.897Z,13.80
2023-02-17T23:51:02.151Z,11.90
2023-02-17T23:53:35.271Z,11.85
2023-02-17T23:56:08.906Z,11.25
2023-02-17T23:58:41.703Z,11.80
